Luke Fidler, Pennsylvania
Current Conditions -  °F | °C
As of 9:53 AM on Friday 19 Dec 2014 (Local Time) from KSEG Reporting Station
Overcast Overcast  
Wind Chill: 28°   Ceiling: 3400
Heat Index: 36°   Visibility: 10mi
Dew Point: 23°   Wind: 12mph
Humidity: 59%   Direction: 340°NNW
Pressure: 30.13"   Gusts: NA
Location:  40.7842°N, 76.5797°W
Report Text: KSEG 191453Z AUTO 34010KT 10SM OVC034 02/M05 A3013 RMK AO2 SLP207 T00221050 51018
Loading
Personal Weather Stations






























Interactive Weather Map New forecast layout! Learn more

10-Day Weather Forecast

Advertisements
Track Severe Weather on mobile